Wayne, NE

11:30 PM CDT on April 30, 2017 (GMT -0500)
1 mile South of Wayne | | Change Station

Elev 1463 ft 42.22 °N, 97.01 °W | Updated 23 seconds ago

Light Snow
Light Snow
33.3 °F
Feels Like 25 °F
N
9.8
Wind Variable Wind from NNW
Gusts 12.3 mph

Today
High -- | Low -- °F
--% Chance of Precip.
Yesterday
High -- | Low -- °F
Precip. -- in
Pressure 29.57 in
Visibility 4.0 miles
Clouds Overcast 500 ft
Windchill 25 °F
Dew Point 33 °F
Humidity 99%
Rainfall 2.13 in
Snow Depth Not available.
6:24 AM 8:26 PM
Waxing Crescent, 29% visible
METAR KLCG 010415Z AUTO 36012G17KT 4SM -SN OVC005 01/01 A2957 RMK AO2 T00080006 PNO
Pressure 29.57 in
Visibility 4.0 miles
Clouds Overcast 500 ft
Windchill 25 °F
Dew Point 33 °F
Humidity 99%
Rainfall 2.13 in
Snow Depth Not available.
6:24 AM 8:26 PM
Waxing Crescent, 29% visible
METAR KLCG 010415Z AUTO 36012G17KT 4SM -SN OVC005 01/01 A2957 RMK AO2 T00080006 PNO

Get Severe Weather Alerts

Thanks for signing up!

Be on the lookout for a verification email in your inbox.

You'll start receiving the daily forecast at 8 AM.

×

10-Day Weather Forecast

Almanac

Astronomy

Apr. 30, 2017 Rise Set
Actual Time
Civil Twilight
Nautical Twilight
Astronomical Twilight
Moon
Length of Visible Light
Length of Day
Tomorrow will be .
, % of the Moon is Illuminated

Today's Extremes

State Highs State Lows

Community

WunderPhotos

WunderBlog® & News

Nearby

Air Quality

  Air Quality AQ Index Pollutant
Not available.

Snow Depth

Station Depth Elevation

Earthquake Activity

City Distance Mag. Time & Date
Minimum magnitude displayed is 2.5.

Coastal Water Temperatures

Place Temperature

Stations

Nearby Weather Stations

Station Location Temp. Windchill Dew Point Humidity Wind Precip. Elev Updated Type
                   

Watches & Warnings

There are currently no watches in effect.